createdAt,value
2022-09-03T00:00:10.669Z,78.31
2022-09-03T00:02:46.252Z,78.26
2022-09-03T00:05:37.335Z,78.35
2022-09-03T00:08:23.157Z,78.34
2022-09-03T00:11:23.445Z,78.22
2022-09-03T00:14:26.812Z,76.62
2022-09-03T00:17:02.800Z,76.91
2022-09-03T00:19:37.369Z,76.40
2022-09-03T00:22:14.141Z,76.64
2022-09-03T00:24:44.069Z,76.20
2022-09-03T00:27:19.286Z,77.30
2022-09-03T00:30:06.804Z,77.84
2022-09-03T00:32:52.578Z,77.81
2022-09-03T00:35:34.461Z,78.21
2022-09-03T00:38:01.668Z,77.44
2022-09-03T00:41:04.341Z,77.74
2022-09-03T00:44:21.496Z,77.55
2022-09-03T00:46:54.304Z,77.38
2022-09-03T00:49:29.569Z,77.52
2022-09-03T00:52:05.227Z,76.11
2022-09-03T00:54:59.836Z,75.93
2022-09-03T00:57:57.971Z,75.82
2022-09-03T01:00:24.787Z,74.55
2022-09-03T01:03:12.794Z,75.10
2022-09-03T01:06:11.974Z,76.34
2022-09-03T01:09:33.298Z,76.01
2022-09-03T01:12:18.848Z,76.24
2022-09-03T01:15:04.402Z,74.94
2022-09-03T01:17:44.888Z,76.01
2022-09-03T01:20:28.674Z,75.65
2022-09-03T01:23:35.936Z,74.35
2022-09-03T01:26:34.883Z,75.61
2022-09-03T01:29:34.762Z,73.18
2022-09-03T01:32:25.873Z,75.03
2022-09-03T01:35:19.236Z,74.39
2022-09-03T01:38:17.178Z,75.29
2022-09-03T01:41:28.123Z,74.92
2022-09-03T01:44:25.599Z,73.55
2022-09-03T01:47:10.993Z,75.85
2022-09-03T01:50:17.501Z,75.05
2022-09-03T01:52:55.687Z,73.98
2022-09-03T01:55:44.025Z,73.85
2022-09-03T01:58:21.794Z,74.53
2022-09-03T02:00:56.747Z,74.89
2022-09-03T02:03:33.556Z,74.90
2022-09-03T02:06:01.786Z,75.00
2022-09-03T02:08:29.265Z,74.86
2022-09-03T02:11:02.687Z,75.61
2022-09-03T02:13:42.375Z,74.42
2022-09-03T02:16:28.136Z,74.39
2022-09-03T02:19:00.933Z,75.46
2022-09-03T02:21:35.252Z,73.44
2022-09-03T02:24:05.254Z,73.85
2022-09-03T02:26:32.361Z,73.43
2022-09-03T02:29:01.564Z,73.26
2022-09-03T02:31:28.875Z,74.11
2022-09-03T02:33:58.218Z,73.52
2022-09-03T02:36:33.557Z,74.91
2022-09-03T02:39:00.561Z,74.35
2022-09-03T02:41:27.534Z,75.76
2022-09-03T02:44:17.993Z,75.30
2022-09-03T02:46:53.610Z,75.89
2022-09-03T02:49:22.884Z,76.00
2022-09-03T02:51:51.788Z,75.92
2022-09-03T02:54:21.072Z,76.11
2022-09-03T02:56:49.821Z,76.28
2022-09-03T02:59:17.995Z,76.87
2022-09-03T03:01:46.660Z,76.32
2022-09-03T03:04:14.691Z,76.77
2022-09-03T03:06:41.498Z,77.39
2022-09-03T03:09:09.417Z,77.59
2022-09-03T03:11:38.544Z,78.03
2022-09-03T03:14:05.615Z,78.22
2022-09-03T03:16:33.616Z,78.11
2022-09-03T03:19:00.596Z,78.66
2022-09-03T03:21:28.038Z,77.90
2022-09-03T03:23:55.923Z,78.50
2022-09-03T03:26:24.169Z,79.42
2022-09-03T03:29:00.618Z,79.83
2022-09-03T03:31:27.990Z,80.17
2022-09-03T03:33:57.812Z,79.18
2022-09-03T03:36:28.341Z,80.12
2022-09-03T03:38:58.134Z,80.72
2022-09-03T03:41:28.389Z,80.98
2022-09-03T03:44:00.621Z,80.59
2022-09-03T03:46:35.428Z,80.96
2022-09-03T03:49:02.726Z,80.53
2022-09-03T03:51:32.583Z,80.25
2022-09-03T03:54:04.338Z,80.39
2022-09-03T03:56:32.486Z,81.24
2022-09-03T03:59:00.296Z,80.91
2022-09-03T04:01:28.957Z,81.58
2022-09-03T04:03:58.545Z,82.06
2022-09-03T04:06:25.765Z,82.43
2022-09-03T04:08:52.617Z,82.10
2022-09-03T04:11:24.002Z,82.03
2022-09-03T04:13:52.027Z,81.40
2022-09-03T04:16:22.455Z,80.94
2022-09-03T04:18:54.380Z,80.81
2022-09-03T04:21:28.597Z,81.34
2022-09-03T04:23:56.900Z,81.76
2022-09-03T04:26:32.573Z,82.09
2022-09-03T04:29:08.576Z,82.57
2022-09-03T04:31:37.430Z,82.04
2022-09-03T04:34:06.512Z,82.03
2022-09-03T04:36:34.997Z,82.17
2022-09-03T04:39:02.374Z,82.76
2022-09-03T04:41:31.515Z,83.44
2022-09-03T04:44:00.589Z,82.96
2022-09-03T04:46:33.138Z,83.78
2022-09-03T04:49:00.622Z,83.67
2022-09-03T04:51:28.565Z,83.69
2022-09-03T04:54:01.619Z,83.45
2022-09-03T04:56:35.070Z,83.22
2022-09-03T04:59:06.970Z,82.74
2022-09-03T05:01:36.399Z,83.43
2022-09-03T05:04:04.794Z,83.52
2022-09-03T05:06:33.164Z,83.34
2022-09-03T05:09:00.641Z,83.20
2022-09-03T05:11:29.380Z,83.61
2022-09-03T05:13:59.497Z,83.98
2022-09-03T05:16:30.070Z,83.86
2022-09-03T05:18:59.726Z,83.94
2022-09-03T05:21:26.907Z,84.53
2022-09-03T05:23:53.976Z,85.09
2022-09-03T05:26:28.628Z,84.85
2022-09-03T05:29:09.769Z,85.34
2022-09-03T05:31:39.235Z,84.96
2022-09-03T05:34:07.203Z,85.50
2022-09-03T05:36:37.422Z,85.41
2022-09-03T05:39:06.305Z,85.09
2022-09-03T05:41:33.982Z,85.15
2022-09-03T05:44:01.292Z,84.79
2022-09-03T05:46:33.886Z,84.12
2022-09-03T05:49:02.975Z,84.08
2022-09-03T05:51:31.008Z,84.41
2022-09-03T05:53:58.772Z,85.28
2022-09-03T05:56:28.209Z,86.04
2022-09-03T05:59:01.069Z,86.50
2022-09-03T06:01:33.902Z,86.08
2022-09-03T06:04:01.536Z,86.31
2022-09-03T06:06:31.930Z,85.98
2022-09-03T06:09:02.546Z,86.53
2022-09-03T06:11:32.898Z,86.46
2022-09-03T06:14:02.064Z,86.14
2022-09-03T06:16:32.135Z,86.71
2022-09-03T06:19:00.772Z,86.88
2022-09-03T06:21:28.676Z,86.97
2022-09-03T06:23:59.363Z,87.13
2022-09-03T06:26:28.707Z,86.75
2022-09-03T06:28:57.323Z,87.01
2022-09-03T06:31:24.972Z,86.66
2022-09-03T06:33:54.543Z,86.73
2022-09-03T06:36:23.104Z,86.32
2022-09-03T06:38:54.333Z,86.20
2022-09-03T06:41:25.360Z,85.84
2022-09-03T06:44:03.102Z,85.57
2022-09-03T06:46:34.985Z,85.61
2022-09-03T06:49:02.267Z,84.87
2022-09-03T06:51:31.990Z,85.15
2022-09-03T06:54:06.237Z,84.51
2022-09-03T06:56:39.572Z,84.70
2022-09-03T06:59:13.925Z,84.09
2022-09-03T07:01:45.189Z,83.93
2022-09-03T07:04:16.120Z,84.38
2022-09-03T07:06:44.361Z,84.43
2022-09-03T07:09:14.879Z,84.30
2022-09-03T07:11:47.271Z,84.17
2022-09-03T07:14:17.234Z,84.05
2022-09-03T07:16:44.133Z,83.72
2022-09-03T07:19:13.317Z,83.60
2022-09-03T07:21:44.080Z,83.80
2022-09-03T07:24:15.264Z,83.35
2022-09-03T07:26:49.321Z,83.57
2022-09-03T07:29:19.895Z,83.22
2022-09-03T07:31:46.856Z,83.11
2022-09-03T07:34:15.069Z,83.31
2022-09-03T07:36:48.883Z,82.90
2022-09-03T07:39:17.860Z,83.95
2022-09-03T07:41:46.023Z,84.06
2022-09-03T07:44:15.187Z,83.79
2022-09-03T07:46:43.690Z,84.59
2022-09-03T07:49:10.970Z,84.08
2022-09-03T07:51:39.294Z,83.35
2022-09-03T07:54:10.874Z,83.12
2022-09-03T07:56:39.713Z,82.71
2022-09-03T07:59:06.980Z,83.14
2022-09-03T08:01:35.250Z,83.66
2022-09-03T08:04:04.220Z,83.12
2022-09-03T08:06:33.957Z,82.72
2022-09-03T08:09:05.741Z,83.41
2022-09-03T08:11:43.320Z,81.88
2022-09-03T08:14:12.868Z,81.45
2022-09-03T08:16:44.115Z,81.73
2022-09-03T08:19:13.452Z,81.97
2022-09-03T08:21:44.642Z,83.14
2022-09-03T08:24:12.786Z,80.94
2022-09-03T08:26:51.143Z,83.96
2022-09-03T08:29:19.486Z,83.26
2022-09-03T08:31:46.555Z,81.59
2022-09-03T08:34:14.777Z,81.57
2022-09-03T08:36:41.867Z,82.31
2022-09-03T08:39:11.010Z,81.32
2022-09-03T08:41:53.318Z,84.44
2022-09-03T08:44:30.077Z,86.68
2022-09-03T08:47:22.601Z,86.73
2022-09-03T08:50:17.342Z,86.88
2022-09-03T08:53:02.429Z,85.76
2022-09-03T08:55:36.213Z,87.34
2022-09-03T08:58:10.772Z,86.78
2022-09-03T09:01:07.876Z,83.64
2022-09-03T09:03:49.781Z,83.61
2022-09-03T09:06:36.550Z,82.50
2022-09-03T09:09:35.579Z,84.82
2022-09-03T09:12:23.287Z,83.58
2022-09-03T09:15:12.154Z,83.12
2022-09-03T09:18:15.745Z,83.61
2022-09-03T09:21:21.372Z,83.51
2022-09-03T09:23:51.112Z,81.97
2022-09-03T09:26:24.113Z,81.67
2022-09-03T09:29:11.420Z,81.83
2022-09-03T09:31:40.080Z,82.60
2022-09-03T09:34:09.061Z,83.60
2022-09-03T09:36:54.471Z,83.10
2022-09-03T09:39:22.671Z,82.24
2022-09-03T09:41:59.631Z,83.52
2022-09-03T09:44:28.016Z,88.98
2022-09-03T09:47:32.610Z,87.17
2022-09-03T09:50:05.162Z,86.98
2022-09-03T09:52:32.247Z,85.26
2022-09-03T09:55:19.630Z,84.18
2022-09-03T09:57:46.533Z,83.63
2022-09-03T10:00:17.388Z,82.97
2022-09-03T10:02:54.494Z,82.43
2022-09-03T10:05:26.542Z,81.31
2022-09-03T10:08:06.595Z,80.95
2022-09-03T10:10:49.759Z,80.75
2022-09-03T10:13:19.354Z,77.77
2022-09-03T10:16:01.546Z,77.51
2022-09-03T10:18:45.743Z,76.69
2022-09-03T10:21:25.096Z,77.71
2022-09-03T10:24:25.854Z,77.99
2022-09-03T10:26:52.668Z,77.43
2022-09-03T10:29:29.394Z,77.01
2022-09-03T10:32:49.978Z,77.80
2022-09-03T10:35:38.218Z,77.27
2022-09-03T10:38:34.034Z,78.19
2022-09-03T10:41:48.584Z,78.41
2022-09-03T10:44:38.913Z,77.61
2022-09-03T10:47:42.895Z,77.70
2022-09-03T10:50:23.805Z,79.04
2022-09-03T10:52:53.278Z,79.42
2022-09-03T10:55:31.509Z,80.33
2022-09-03T10:58:50.732Z,79.22
2022-09-03T11:01:26.035Z,78.96
2022-09-03T11:04:30.641Z,79.35
2022-09-03T11:07:13.642Z,79.16
2022-09-03T11:09:52.626Z,78.74
2022-09-03T11:12:31.611Z,78.46
2022-09-03T11:15:07.298Z,79.67
2022-09-03T11:18:00.801Z,79.51
2022-09-03T11:20:28.055Z,79.98
2022-09-03T11:22:59.335Z,79.63
2022-09-03T11:25:34.801Z,80.80
2022-09-03T11:28:42.223Z,79.49
2022-09-03T11:31:31.493Z,78.63
2022-09-03T11:34:22.163Z,79.51
2022-09-03T11:36:50.636Z,78.92
2022-09-03T11:39:36.870Z,80.30
2022-09-03T11:42:28.714Z,80.67
2022-09-03T11:45:20.852Z,81.27
2022-09-03T11:47:48.312Z,81.47
2022-09-03T11:50:31.047Z,81.98
2022-09-03T11:53:28.352Z,82.85
2022-09-03T11:56:07.340Z,82.30
2022-09-03T11:58:37.795Z,81.73
2022-09-03T12:01:12.323Z,80.21
2022-09-03T12:03:52.020Z,81.83
2022-09-03T12:07:05.118Z,84.01
2022-09-03T12:09:46.039Z,90.25
2022-09-03T12:12:55.588Z,95.18
2022-09-03T12:15:50.368Z,98.84
2022-09-03T12:18:26.006Z,100.00
2022-09-03T12:20:52.824Z,100.00
2022-09-03T12:23:49.275Z,100.00
2022-09-03T12:26:23.757Z,100.00
2022-09-03T12:28:57.635Z,100.00
2022-09-03T12:31:31.308Z,100.00
2022-09-03T12:34:12.147Z,100.00
2022-09-03T12:36:47.894Z,100.00
2022-09-03T12:40:04.806Z,100.00
2022-09-03T12:42:23.721Z,100.00
2022-09-03T12:44:50.642Z,100.00
2022-09-03T12:47:37.987Z,100.00
2022-09-03T12:50:13.632Z,100.00
2022-09-03T12:52:57.128Z,100.00
2022-09-03T12:55:57.338Z,100.00
2022-09-03T12:58:27.765Z,100.00
2022-09-03T13:01:03.852Z,100.00
2022-09-03T13:03:57.937Z,100.00
2022-09-03T13:06:44.889Z,100.00
2022-09-03T13:09:13.258Z,100.00
2022-09-03T13:11:40.248Z,100.00
2022-09-03T13:14:11.717Z,100.00
2022-09-03T13:16:44.853Z,100.00
2022-09-03T13:19:51.110Z,100.00
2022-09-03T13:22:54.290Z,100.00
2022-09-03T13:25:46.139Z,100.00
2022-09-03T13:28:55.526Z,100.00
2022-09-03T13:31:33.934Z,100.00
2022-09-03T13:34:12.159Z,100.00
2022-09-03T13:36:56.805Z,100.00
2022-09-03T13:39:42.140Z,100.00
2022-09-03T13:42:24.148Z,100.00
2022-09-03T13:45:00.406Z,100.00
2022-09-03T13:48:01.694Z,100.00
2022-09-03T13:50:33.877Z,100.00
2022-09-03T13:53:04.801Z,100.00
2022-09-03T13:55:31.524Z,100.00
2022-09-03T13:58:20.362Z,100.00
2022-09-03T14:01:20.149Z,100.00
2022-09-03T14:03:58.731Z,100.00
2022-09-03T14:06:38.017Z,100.00
2022-09-03T14:09:34.819Z,100.00
2022-09-03T14:12:14.187Z,100.00
2022-09-03T14:15:05.460Z,100.00
2022-09-03T14:17:59.249Z,100.00
2022-09-03T14:20:31.538Z,100.00
2022-09-03T14:23:26.182Z,100.00
2022-09-03T14:25:57.577Z,100.00
2022-09-03T14:28:41.910Z,100.00
2022-09-03T14:31:41.949Z,100.00
2022-09-03T14:34:38.161Z,100.00
2022-09-03T14:37:31.403Z,100.00
2022-09-03T14:40:21.967Z,100.00
2022-09-03T14:43:22.107Z,100.00
2022-09-03T14:45:55.742Z,100.00
2022-09-03T14:49:00.776Z,100.00
2022-09-03T14:52:03.407Z,100.00
2022-09-03T14:55:15.057Z,100.00
2022-09-03T14:58:19.406Z,100.00
2022-09-03T15:00:58.137Z,100.00
2022-09-03T15:03:55.469Z,100.00
2022-09-03T15:06:31.293Z,100.00
2022-09-03T15:09:28.739Z,100.00
2022-09-03T15:12:23.839Z,100.00
2022-09-03T15:14:56.646Z,100.00
2022-09-03T15:17:40.649Z,100.00
2022-09-03T15:20:24.315Z,100.00
2022-09-03T15:23:12.483Z,100.00
2022-09-03T15:26:00.058Z,100.00
2022-09-03T15:29:13.298Z,100.00
2022-09-03T15:32:01.501Z,100.00
2022-09-03T15:34:53.924Z,100.00
2022-09-03T15:37:35.204Z,100.00
2022-09-03T15:40:11.005Z,100.00
2022-09-03T15:42:38.858Z,100.00
2022-09-03T15:45:57.674Z,100.00
2022-09-03T15:48:53.397Z,100.00
2022-09-03T15:51:27.180Z,100.00
2022-09-03T15:54:12.624Z,100.00
2022-09-03T15:56:59.179Z,100.00
2022-09-03T15:59:38.324Z,100.00
2022-09-03T16:03:00.757Z,100.00
2022-09-03T16:05:52.246Z,100.00
2022-09-03T16:08:38.186Z,100.00
2022-09-03T16:11:39.330Z,100.00
2022-09-03T16:14:35.946Z,100.00
2022-09-03T16:17:21.244Z,100.00
2022-09-03T16:20:08.741Z,100.00
2022-09-03T16:23:04.796Z,100.00
2022-09-03T16:26:00.096Z,100.00
2022-09-03T16:28:41.328Z,100.00
2022-09-03T16:32:09.422Z,100.00
2022-09-03T16:35:15.222Z,100.00
2022-09-03T16:38:23.091Z,100.00
2022-09-03T16:41:18.574Z,100.00
2022-09-03T16:44:24.814Z,100.00
2022-09-03T16:47:11.813Z,100.00
2022-09-03T16:49:39.891Z,100.00
2022-09-03T16:52:37.622Z,100.00
2022-09-03T16:55:34.717Z,100.00
2022-09-03T16:58:23.710Z,100.00
2022-09-03T17:01:09.142Z,100.00
2022-09-03T17:04:00.824Z,100.00
2022-09-03T17:07:03.690Z,100.00
2022-09-03T17:10:01.611Z,100.00
2022-09-03T17:12:48.886Z,100.00
2022-09-03T17:15:34.585Z,100.00
2022-09-03T17:18:26.360Z,100.00
2022-09-03T17:21:04.583Z,100.00
2022-09-03T17:23:59.644Z,100.00
2022-09-03T17:26:48.108Z,100.00
2022-09-03T17:30:02.506Z,100.00
2022-09-03T17:33:09.996Z,100.00
2022-09-03T17:35:51.769Z,100.00
2022-09-03T17:39:01.495Z,100.00
2022-09-03T17:41:43.863Z,100.00
2022-09-03T17:44:54.444Z,100.00
2022-09-03T17:47:42.446Z,100.00
2022-09-03T17:50:11.968Z,100.00
2022-09-03T17:52:46.169Z,100.00
2022-09-03T17:55:36.511Z,100.00
2022-09-03T17:58:32.700Z,100.00
2022-09-03T18:01:13.654Z,100.00
2022-09-03T18:04:03.288Z,100.00
2022-09-03T18:06:37.587Z,100.00
2022-09-03T18:09:28.546Z,100.00
2022-09-03T18:12:10.692Z,100.00
2022-09-03T18:14:51.724Z,100.00
2022-09-03T18:17:32.897Z,100.00
2022-09-03T18:20:26.851Z,100.00
2022-09-03T18:23:35.992Z,100.00
2022-09-03T18:26:34.963Z,100.00
2022-09-03T18:29:32.121Z,100.00
2022-09-03T18:32:19.506Z,100.00
2022-09-03T18:35:06.252Z,100.00
2022-09-03T18:37:51.429Z,100.00
2022-09-03T18:40:46.500Z,100.00
2022-09-03T18:43:49.265Z,100.00
2022-09-03T18:50:31.116Z,100.00
2022-09-03T18:53:47.781Z,100.00
2022-09-03T18:56:55.677Z,100.00
2022-09-03T19:00:32.430Z,100.00
2022-09-03T19:04:01.071Z,100.00
2022-09-03T19:07:25.067Z,100.00
2022-09-03T19:10:29.433Z,100.00
2022-09-03T19:13:45.614Z,100.00
2022-09-03T19:17:11.046Z,100.00
2022-09-03T19:20:42.827Z,100.00
2022-09-03T19:23:29.270Z,100.00
2022-09-03T19:26:40.086Z,100.00
2022-09-03T19:29:52.955Z,100.00
2022-09-03T19:32:52.258Z,100.00
2022-09-03T19:35:41.964Z,100.00
2022-09-03T19:38:46.282Z,100.00
2022-09-03T19:41:54.385Z,100.00
2022-09-03T19:45:10.392Z,100.00
2022-09-03T19:48:27.861Z,100.00
2022-09-03T19:52:18.456Z,100.00
2022-09-03T19:55:07.627Z,100.00
2022-09-03T19:57:53.312Z,100.00
2022-09-03T20:00:41.423Z,100.00
2022-09-03T20:03:26.727Z,100.00
2022-09-03T20:06:12.218Z,100.00
2022-09-03T20:08:57.613Z,100.00
2022-09-03T20:11:27.597Z,100.00
2022-09-03T20:14:13.153Z,100.00
2022-09-03T20:17:12.826Z,100.00
2022-09-03T20:20:10.410Z,100.00
2022-09-03T20:22:52.313Z,100.00
2022-09-03T20:26:08.444Z,100.00
2022-09-03T20:28:52.422Z,100.00
2022-09-03T20:32:03.071Z,100.00
2022-09-03T20:34:50.937Z,100.00
2022-09-03T20:38:24.429Z,100.00
2022-09-03T20:41:13.970Z,100.00
2022-09-03T20:44:16.975Z,100.00
2022-09-03T20:47:04.466Z,100.00
2022-09-03T20:49:51.617Z,100.00
2022-09-03T20:52:45.691Z,100.00
2022-09-03T20:55:25.281Z,100.00
2022-09-03T20:58:19.414Z,100.00
2022-09-03T21:01:08.412Z,100.00
2022-09-03T21:04:33.933Z,100.00
2022-09-03T21:07:12.837Z,100.00
2022-09-03T21:09:55.218Z,100.00
2022-09-03T21:13:18.117Z,100.00
2022-09-03T21:16:23.772Z,100.00
2022-09-03T21:19:11.904Z,100.00
2022-09-03T21:21:45.650Z,100.00
2022-09-03T21:24:21.644Z,100.00
2022-09-03T21:26:58.852Z,100.00
2022-09-03T21:29:50.517Z,100.00
2022-09-03T21:32:24.071Z,100.00
2022-09-03T21:35:21.698Z,100.00
2022-09-03T21:37:59.553Z,100.00
2022-09-03T21:40:32.460Z,100.00
2022-09-03T21:43:17.570Z,100.00
2022-09-03T21:46:04.248Z,100.00
2022-09-03T21:48:42.197Z,100.00
2022-09-03T21:51:30.024Z,100.00
2022-09-03T21:54:09.497Z,100.00
2022-09-03T21:56:55.569Z,100.00
2022-09-03T22:00:09.107Z,100.00
2022-09-03T22:02:36.362Z,100.00
2022-09-03T22:05:05.332Z,100.00
2022-09-03T22:07:50.694Z,100.00
2022-09-03T22:10:26.069Z,100.00
2022-09-03T22:13:17.254Z,100.00
2022-09-03T22:15:50.205Z,100.00
2022-09-03T22:18:29.401Z,100.00
2022-09-03T22:21:26.950Z,100.00
2022-09-03T22:24:23.510Z,100.00
2022-09-03T22:27:29.104Z,100.00
2022-09-03T22:30:20.209Z,100.00
2022-09-03T22:33:21.709Z,100.00
2022-09-03T22:36:13.003Z,100.00
2022-09-03T22:39:08.078Z,100.00
2022-09-03T22:42:11.577Z,100.00
2022-09-03T22:44:55.497Z,100.00
2022-09-03T22:48:07.658Z,100.00
2022-09-03T22:50:57.025Z,100.00
2022-09-03T22:53:52.699Z,100.00
2022-09-03T22:56:22.410Z,100.00
2022-09-03T22:59:15.709Z,100.00
2022-09-03T23:02:00.499Z,100.00
2022-09-03T23:04:57.994Z,100.00
2022-09-03T23:07:48.179Z,100.00
2022-09-03T23:10:25.751Z,100.00
2022-09-03T23:13:16.889Z,100.00
2022-09-03T23:15:46.764Z,100.00
2022-09-03T23:18:17.859Z,100.00
2022-09-03T23:21:03.299Z,100.00
2022-09-03T23:23:36.240Z,100.00
2022-09-03T23:26:15.589Z,100.00
2022-09-03T23:28:49.664Z,100.00
2022-09-03T23:31:21.758Z,100.00
2022-09-03T23:33:52.090Z,100.00
2022-09-03T23:40:41.832Z,100.00
2022-09-03T23:43:31.009Z,100.00
2022-09-03T23:46:26.258Z,100.00
2022-09-03T23:49:15.178Z,100.00
2022-09-03T23:51:54.222Z,100.00
2022-09-03T23:54:39.017Z,100.00
2022-09-03T23:57:40.989Z,100.00
